createdAt,value
2019-02-15T00:01:25.208Z,-0.10
2019-02-15T00:03:53.505Z,0.00
2019-02-15T00:06:21.829Z,0.00
2019-02-15T00:08:50.133Z,0.10
2019-02-15T00:11:18.461Z,0.10
2019-02-15T00:13:46.772Z,0.10
2019-02-15T00:16:15.147Z,0.10
2019-02-15T00:18:48.449Z,0.00
2019-02-15T00:21:17.343Z,0.00
2019-02-15T00:23:46.507Z,0.10
2019-02-15T00:26:16.525Z,0.10
2019-02-15T00:28:43.264Z,0.10
2019-02-15T00:31:11.527Z,0.10
2019-02-15T00:33:39.783Z,0.10
2019-02-15T00:36:08.908Z,-0.20
2019-02-15T00:38:37.167Z,-0.20
2019-02-15T00:41:05.456Z,-0.30
2019-02-15T00:43:33.827Z,-0.30
2019-02-15T00:46:04.983Z,-0.40
2019-02-15T00:48:33.493Z,-0.30
2019-02-15T00:51:04.436Z,-0.40
2019-02-15T00:53:36.180Z,-0.20
2019-02-15T00:56:20.974Z,-0.10
2019-02-15T00:58:53.320Z,-0.10
2019-02-15T01:01:27.988Z,-0.20
2019-02-15T01:03:56.296Z,-0.20
2019-02-15T01:06:36.319Z,-0.30
2019-02-15T01:09:09.281Z,-0.40
2019-02-15T01:11:40.342Z,-0.40
2019-02-15T01:14:08.631Z,-0.60
2019-02-15T01:16:36.904Z,-0.70
2019-02-15T01:19:05.344Z,-0.80
2019-02-15T01:21:34.413Z,-0.70
2019-02-15T01:24:02.741Z,-0.70
2019-02-15T01:26:36.579Z,-0.70
2019-02-15T01:29:07.412Z,-0.60
2019-02-15T01:31:51.376Z,-0.70
2019-02-15T01:34:37.455Z,-0.70
2019-02-15T01:37:09.192Z,-0.70
2019-02-15T01:39:41.218Z,-0.70
2019-02-15T01:42:12.180Z,-0.80
2019-02-15T01:44:40.491Z,-0.90
2019-02-15T01:47:08.768Z,-0.90
2019-02-15T01:49:37.103Z,-1.00
2019-02-15T01:52:05.436Z,-0.80
2019-02-15T01:54:34.603Z,-0.60
2019-02-15T01:57:03.015Z,-0.70
2019-02-15T01:59:32.166Z,-0.80
2019-02-15T02:02:00.472Z,-0.80
2019-02-15T02:04:28.796Z,-0.80
2019-02-15T02:06:57.831Z,-0.70
2019-02-15T02:09:26.157Z,-0.70
2019-02-15T02:11:55.291Z,-0.40
2019-02-15T02:14:23.559Z,-0.40
2019-02-15T02:16:51.866Z,-0.50
2019-02-15T02:19:20.330Z,-0.60
2019-02-15T02:21:48.651Z,-0.80
2019-02-15T02:24:16.974Z,-0.90
2019-02-15T02:26:45.242Z,-0.90
2019-02-15T02:29:13.532Z,-1.00
2019-02-15T02:31:41.949Z,-1.00
2019-02-15T02:34:11.021Z,-0.80
2019-02-15T02:36:49.123Z,-0.80
2019-02-15T02:39:17.514Z,-0.80
2019-02-15T02:41:45.861Z,-0.90
2019-02-15T02:44:14.240Z,-1.00
2019-02-15T02:46:42.499Z,-1.00
2019-02-15T02:49:10.866Z,-0.90
2019-02-15T02:51:39.113Z,-0.70
2019-02-15T02:54:07.415Z,-0.80
2019-02-15T02:56:35.712Z,-0.90
2019-02-15T02:59:04.049Z,-1.00
2019-02-15T03:01:32.375Z,-1.00
2019-02-15T03:04:00.689Z,-1.10
2019-02-15T03:06:29.852Z,-1.00
2019-02-15T03:08:58.194Z,-1.00
2019-02-15T03:11:26.491Z,-1.00
2019-02-15T03:13:54.783Z,-1.00
2019-02-15T03:16:23.080Z,-0.90
2019-02-15T03:18:52.281Z,-1.10
2019-02-15T03:21:21.334Z,-1.30
2019-02-15T03:23:49.745Z,-1.30
2019-02-15T03:26:18.138Z,-1.40
2019-02-15T03:28:47.204Z,-1.40
2019-02-15T03:31:15.485Z,-1.40
2019-02-15T03:33:43.798Z,-1.40
2019-02-15T03:36:12.121Z,-1.30
2019-02-15T03:38:46.113Z,-1.40
2019-02-15T03:41:20.249Z,-1.40
2019-02-15T03:43:48.621Z,-1.50
2019-02-15T03:46:16.903Z,-1.40
2019-02-15T03:48:45.298Z,-1.40
2019-02-15T03:51:13.579Z,-1.50
2019-02-15T03:53:41.855Z,-1.50
2019-02-15T03:56:10.944Z,-1.60
2019-02-15T03:58:39.326Z,-1.60
2019-02-15T04:01:07.611Z,-1.60
2019-02-15T04:03:35.924Z,-1.50
2019-02-15T04:06:04.221Z,-1.50
2019-02-15T04:08:32.545Z,-1.50
2019-02-15T04:11:00.838Z,-1.50
2019-02-15T04:13:29.130Z,-1.40
2019-02-15T04:15:57.442Z,-1.50
2019-02-15T04:18:25.816Z,-1.60
2019-02-15T04:20:54.111Z,-1.60
2019-02-15T04:23:23.305Z,-1.40
2019-02-15T04:25:51.681Z,-1.40
2019-02-15T04:28:19.969Z,-1.40
2019-02-15T04:30:49.039Z,-1.40
2019-02-15T04:33:17.323Z,-1.50
2019-02-15T04:35:46.393Z,-1.70
2019-02-15T04:38:14.682Z,-1.70
2019-02-15T04:40:42.986Z,-1.70
2019-02-15T04:43:11.284Z,-1.70
2019-02-15T04:45:39.633Z,-1.90
2019-02-15T04:48:08.695Z,-2.00
2019-02-15T04:50:37.006Z,-2.00
2019-02-15T04:53:06.076Z,-2.00
2019-02-15T04:55:34.435Z,-2.00
2019-02-15T04:58:02.727Z,-2.10
2019-02-15T05:00:31.090Z,-2.10
2019-02-15T05:02:59.466Z,-2.10
2019-02-15T05:05:27.853Z,-2.10
2019-02-15T05:07:56.187Z,-2.10
2019-02-15T05:10:24.475Z,-1.90
2019-02-15T05:12:52.908Z,-1.80
2019-02-15T05:15:21.975Z,-1.90
2019-02-15T05:17:50.260Z,-1.90
2019-02-15T05:20:18.665Z,-2.00
2019-02-15T05:22:47.749Z,-1.90
2019-02-15T05:25:16.908Z,-1.90
2019-02-15T05:27:45.298Z,-1.90
2019-02-15T05:30:13.667Z,-1.90
2019-02-15T05:32:41.995Z,-2.00
2019-02-15T05:35:10.295Z,-2.10
2019-02-15T05:37:39.410Z,-2.00
2019-02-15T05:40:07.788Z,-2.10
2019-02-15T05:42:36.174Z,-2.00
2019-02-15T05:45:04.820Z,-2.00
2019-02-15T05:47:33.565Z,-2.00
2019-02-15T05:50:01.907Z,-2.00
2019-02-15T05:52:30.234Z,-2.10
2019-02-15T05:54:59.296Z,-2.30
2019-02-15T05:57:27.582Z,-2.30
2019-02-15T05:59:55.880Z,-2.40
2019-02-15T06:02:24.253Z,-2.40
2019-02-15T06:04:53.419Z,-2.40
2019-02-15T06:07:21.724Z,-2.40
2019-02-15T06:09:50.827Z,-2.10
2019-02-15T06:12:19.894Z,-2.10
2019-02-15T06:14:49.795Z,-2.10
2019-02-15T06:17:18.105Z,-2.10
2019-02-15T06:19:47.162Z,-2.20
2019-02-15T06:22:15.482Z,-2.20
2019-02-15T06:24:44.773Z,-2.40
2019-02-15T06:27:13.936Z,-2.30
2019-02-15T06:29:42.259Z,-2.30
2019-02-15T06:32:10.587Z,-2.10
2019-02-15T06:34:39.876Z,-2.00
2019-02-15T06:37:08.184Z,-2.00
2019-02-15T06:39:37.271Z,-2.20
2019-02-15T06:42:05.725Z,-2.20
2019-02-15T06:44:34.103Z,-2.00
2019-02-15T06:47:02.411Z,-1.80
2019-02-15T06:49:30.677Z,-1.80
2019-02-15T06:51:58.944Z,-1.80
2019-02-15T06:54:27.360Z,-1.60
2019-02-15T06:56:55.691Z,-1.50
2019-02-15T06:59:42.406Z,-1.50
2019-02-15T07:02:20.627Z,-1.50
2019-02-15T07:04:54.695Z,-1.50
2019-02-15T07:07:23.093Z,-1.50
2019-02-15T07:09:51.475Z,-1.50
2019-02-15T07:12:19.775Z,-1.40
2019-02-15T07:14:48.064Z,-1.50
2019-02-15T07:17:17.134Z,-1.30
2019-02-15T07:19:45.429Z,-1.30
2019-02-15T07:22:14.595Z,-1.40
2019-02-15T07:24:42.890Z,-1.40
2019-02-15T07:27:11.191Z,-1.50
2019-02-15T07:29:39.515Z,-1.50
2019-02-15T07:32:07.817Z,-1.40
2019-02-15T07:34:36.102Z,-1.20
2019-02-15T07:37:04.386Z,-1.20
2019-02-15T07:39:33.434Z,-1.10
2019-02-15T07:42:01.708Z,-1.10
2019-02-15T07:44:30.028Z,-0.90
2019-02-15T07:46:58.315Z,-0.90
2019-02-15T07:49:27.377Z,-0.70
2019-02-15T07:51:55.748Z,-0.70
2019-02-15T07:54:24.040Z,-0.50
2019-02-15T07:56:52.324Z,-0.40
2019-02-15T07:59:20.667Z,-0.30
2019-02-15T08:01:48.967Z,-0.20
2019-02-15T08:04:18.050Z,-0.10
2019-02-15T08:06:46.418Z,-0.10
2019-02-15T08:09:14.765Z,0.10
2019-02-15T08:11:43.056Z,0.20
2019-02-15T08:14:14.892Z,0.10
2019-02-15T08:16:39.725Z,0.20
2019-02-15T08:19:08.098Z,0.30
2019-02-15T08:21:36.395Z,0.20
2019-02-15T08:24:04.751Z,0.40
2019-02-15T08:26:33.125Z,0.60
2019-02-15T08:29:01.506Z,0.60
2019-02-15T08:31:29.760Z,0.70
2019-02-15T08:33:58.164Z,0.50
2019-02-15T08:36:26.483Z,0.60
2019-02-15T08:38:54.786Z,0.60
2019-02-15T08:41:23.119Z,0.90
2019-02-15T08:43:51.399Z,1.30
2019-02-15T08:46:20.555Z,1.50
2019-02-15T08:48:48.983Z,1.50
2019-02-15T08:51:17.317Z,1.70
2019-02-15T08:53:45.645Z,2.00
2019-02-15T08:56:14.004Z,2.60
2019-02-15T08:58:43.079Z,2.50
2019-02-15T09:01:11.482Z,2.50
2019-02-15T09:03:40.543Z,3.10
2019-02-15T09:06:09.599Z,3.10
2019-02-15T09:08:37.835Z,3.40
2019-02-15T09:11:06.138Z,3.30
2019-02-15T09:13:34.497Z,3.20
2019-02-15T09:16:10.013Z,3.40
2019-02-15T09:18:31.919Z,3.40
2019-02-15T09:21:00.203Z,3.40
2019-02-15T09:23:28.495Z,3.60
2019-02-15T09:25:56.783Z,4.10
2019-02-15T09:28:25.876Z,4.60
2019-02-15T09:30:54.155Z,4.60
2019-02-15T09:33:23.249Z,4.50
2019-02-15T09:35:52.343Z,5.20
2019-02-15T09:38:20.619Z,5.20
2019-02-15T09:40:49.694Z,5.70
2019-02-15T09:43:17.980Z,5.80
2019-02-15T09:45:46.278Z,5.30
2019-02-15T09:48:15.319Z,6.20
2019-02-15T09:50:43.734Z,6.20
2019-02-15T09:53:12.906Z,6.80
2019-02-15T09:55:41.984Z,6.70
2019-02-15T09:58:10.283Z,6.70
2019-02-15T10:00:38.573Z,7.10
2019-02-15T10:03:06.883Z,7.50
2019-02-15T10:05:35.193Z,7.40
2019-02-15T10:08:03.462Z,7.10
2019-02-15T10:10:31.750Z,7.50
2019-02-15T10:13:00.132Z,7.70
2019-02-15T10:15:28.503Z,7.30
2019-02-15T10:17:56.812Z,7.80
2019-02-15T10:20:25.875Z,7.90
2019-02-15T10:22:54.265Z,7.90
2019-02-15T10:25:22.627Z,8.00
2019-02-15T10:27:50.903Z,8.40
2019-02-15T10:30:19.245Z,8.70
2019-02-15T10:32:47.555Z,8.60
2019-02-15T10:35:15.842Z,8.20
2019-02-15T10:37:45.678Z,8.70
2019-02-15T10:40:14.066Z,8.70
2019-02-15T10:42:42.289Z,8.60
2019-02-15T10:45:12.303Z,8.90
2019-02-15T10:47:40.634Z,8.80
2019-02-15T10:50:08.969Z,8.90
2019-02-15T10:52:37.263Z,9.00
2019-02-15T10:55:05.559Z,9.50
2019-02-15T10:57:33.824Z,9.80
2019-02-15T11:00:02.889Z,10.90
2019-02-15T11:02:31.215Z,10.90
2019-02-15T11:05:00.368Z,10.50
2019-02-15T11:07:28.735Z,10.40
2019-02-15T11:09:57.044Z,10.60
2019-02-15T11:12:25.430Z,11.00
2019-02-15T11:14:53.797Z,25.90
2019-02-15T11:17:22.085Z,25.60
2019-02-15T11:19:51.128Z,12.20
2019-02-15T11:22:19.808Z,12.10
2019-02-15T11:24:48.129Z,12.80
2019-02-15T11:44:43.325Z,11.90
2019-02-15T11:47:13.120Z,15.40
2019-02-15T11:49:41.497Z,15.40
2019-02-15T11:52:09.821Z,13.70
2019-02-15T11:54:38.144Z,12.90
2019-02-15T11:57:06.471Z,12.60
2019-02-15T11:59:35.566Z,12.80
2019-02-15T12:02:06.495Z,12.90
2019-02-15T12:04:32.909Z,12.90
2019-02-15T12:07:01.253Z,12.80
2019-02-15T12:09:29.552Z,12.80
2019-02-15T12:11:57.853Z,13.00
2019-02-15T12:14:26.195Z,13.10
2019-02-15T12:16:54.545Z,13.20
2019-02-15T12:19:22.846Z,13.20
2019-02-15T12:21:51.151Z,13.20
2019-02-15T12:24:19.457Z,13.30
2019-02-15T12:26:48.499Z,13.50
2019-02-15T12:29:16.763Z,13.50
2019-02-15T12:31:45.138Z,13.50
2019-02-15T12:34:13.552Z,13.40
2019-02-15T12:36:41.951Z,13.50
2019-02-15T12:39:12.746Z,13.40
2019-02-15T12:41:38.676Z,13.50
2019-02-15T12:44:06.934Z,13.50
2019-02-15T12:46:35.206Z,13.50
2019-02-15T12:49:03.678Z,13.60
2019-02-15T12:51:32.057Z,13.90
2019-02-15T12:54:00.373Z,13.70
2019-02-15T12:56:30.155Z,13.40
2019-02-15T12:58:58.455Z,13.40
2019-02-15T13:01:26.858Z,13.90
2019-02-15T13:03:56.001Z,14.00
2019-02-15T13:06:28.713Z,14.00
2019-02-15T13:08:52.755Z,14.00
2019-02-15T13:11:21.127Z,13.80
2019-02-15T13:13:49.426Z,13.70
2019-02-15T13:16:17.671Z,13.70
2019-02-15T13:18:45.967Z,13.80
2019-02-15T13:21:14.327Z,14.00
2019-02-15T13:23:42.756Z,14.30
2019-02-15T13:26:11.842Z,13.80
2019-02-15T13:28:40.144Z,13.80
2019-02-15T13:31:08.431Z,13.80
2019-02-15T13:33:36.777Z,13.60
2019-02-15T13:36:05.044Z,13.20
2019-02-15T13:38:33.326Z,13.20
2019-02-15T13:41:01.636Z,12.90
2019-02-15T13:43:29.956Z,12.60
2019-02-15T13:45:58.232Z,12.30
2019-02-15T13:48:26.491Z,12.20
2019-02-15T13:50:54.768Z,12.10
2019-02-15T13:53:23.088Z,12.00
2019-02-15T13:55:51.343Z,11.90
2019-02-15T13:58:19.710Z,11.90
2019-02-15T14:00:48.091Z,11.90
2019-02-15T14:03:16.920Z,11.80
2019-02-15T14:05:45.958Z,11.70
2019-02-15T14:08:14.228Z,11.60
2019-02-15T14:10:42.602Z,11.60
2019-02-15T14:13:10.979Z,11.60
2019-02-15T14:15:39.401Z,11.40
2019-02-15T14:18:08.444Z,11.50
2019-02-15T14:20:36.745Z,11.50
2019-02-15T14:23:05.045Z,11.50
2019-02-15T14:25:33.433Z,11.40
2019-02-15T14:28:01.740Z,11.50
2019-02-15T14:30:30.857Z,11.60
2019-02-15T14:32:59.234Z,11.50
2019-02-15T14:35:27.612Z,11.50
2019-02-15T14:37:55.915Z,11.50
2019-02-15T14:40:24.635Z,11.50
2019-02-15T14:42:52.951Z,11.50
2019-02-15T14:45:21.372Z,11.50
2019-02-15T14:47:54.854Z,11.50
2019-02-15T14:50:17.979Z,11.40
2019-02-15T14:52:46.351Z,11.30
2019-02-15T14:55:14.637Z,11.40
2019-02-15T14:57:43.011Z,11.40
2019-02-15T15:00:11.304Z,11.40
2019-02-15T15:02:39.596Z,11.30
2019-02-15T15:05:07.884Z,11.30
2019-02-15T15:07:36.928Z,11.20
2019-02-15T15:10:05.297Z,11.20
2019-02-15T15:12:33.559Z,11.20
2019-02-15T15:15:01.866Z,11.20
2019-02-15T15:17:30.148Z,11.20
2019-02-15T15:19:58.835Z,11.20
2019-02-15T15:22:27.091Z,11.20
2019-02-15T15:24:55.483Z,11.00
2019-02-15T15:27:23.744Z,10.90
2019-02-15T15:29:52.127Z,10.90
2019-02-15T15:32:20.413Z,10.90
2019-02-15T15:34:48.723Z,10.80
2019-02-15T15:37:17.090Z,10.80
2019-02-15T15:39:45.480Z,10.80
2019-02-15T15:42:13.731Z,10.70
2019-02-15T15:44:42.053Z,10.60
2019-02-15T15:47:10.355Z,10.60
2019-02-15T15:49:38.640Z,10.60
2019-02-15T15:52:06.927Z,10.60
2019-02-15T15:54:35.295Z,10.50
2019-02-15T15:57:03.587Z,10.40
2019-02-15T15:59:31.908Z,10.40
2019-02-15T16:02:00.246Z,10.30
2019-02-15T16:04:28.743Z,10.30
2019-02-15T16:06:57.074Z,10.30
2019-02-15T16:09:25.488Z,10.20
2019-02-15T16:11:53.867Z,10.20
2019-02-15T16:14:22.147Z,10.20
2019-02-15T16:16:51.217Z,10.10
2019-02-15T16:19:19.495Z,10.10
2019-02-15T16:21:48.022Z,10.00
2019-02-15T16:24:16.176Z,10.00
2019-02-15T16:26:44.465Z,9.90
2019-02-15T16:29:14.103Z,9.80
2019-02-15T16:31:41.790Z,9.80
2019-02-15T16:34:10.146Z,9.70
2019-02-15T16:36:38.470Z,9.70
2019-02-15T16:39:07.539Z,9.50
2019-02-15T16:41:35.942Z,9.50
2019-02-15T16:44:05.089Z,9.40
2019-02-15T16:46:33.367Z,9.40
2019-02-15T16:49:01.743Z,9.30
2019-02-15T16:51:30.123Z,9.30
2019-02-15T16:53:58.388Z,9.30
2019-02-15T16:56:28.210Z,9.30
2019-02-15T16:58:56.908Z,9.20
2019-02-15T17:01:25.194Z,9.20
2019-02-15T17:03:53.513Z,9.10
2019-02-15T17:06:23.344Z,9.00
2019-02-15T17:08:50.067Z,8.90
2019-02-15T17:11:18.371Z,8.70
2019-02-15T17:13:46.652Z,8.60
2019-02-15T17:16:14.949Z,8.50
2019-02-15T17:18:51.437Z,8.40
2019-02-15T17:21:13.060Z,8.30
2019-02-15T17:23:42.107Z,8.10
2019-02-15T17:26:10.463Z,8.10
2019-02-15T17:28:40.323Z,8.10
2019-02-15T17:31:08.586Z,8.10
2019-02-15T17:33:48.869Z,8.10
2019-02-15T17:36:17.623Z,8.00
2019-02-15T17:38:45.993Z,7.90
2019-02-15T17:41:14.390Z,7.80
2019-02-15T17:43:44.134Z,7.80
2019-02-15T17:46:12.529Z,7.70
2019-02-15T17:48:41.547Z,7.70
2019-02-15T17:51:10.801Z,7.70
2019-02-15T17:53:39.834Z,7.60
2019-02-15T17:56:08.223Z,7.60
2019-02-15T17:58:36.522Z,7.50
2019-02-15T18:01:04.886Z,7.40
2019-02-15T18:03:33.216Z,7.40
2019-02-15T18:06:02.271Z,7.30
2019-02-15T18:08:30.621Z,7.30
2019-02-15T18:10:58.957Z,7.30
2019-02-15T18:13:27.277Z,7.20
2019-02-15T18:15:55.682Z,7.00
2019-02-15T18:18:24.047Z,7.00
2019-02-15T18:20:52.463Z,7.00
2019-02-15T18:23:20.814Z,7.10
2019-02-15T18:25:49.171Z,7.00
2019-02-15T18:28:17.531Z,7.00
2019-02-15T18:30:45.935Z,6.80
2019-02-15T18:33:14.300Z,6.70
2019-02-15T18:35:42.673Z,6.70
2019-02-15T18:38:10.994Z,6.60
2019-02-15T18:40:40.040Z,6.60
2019-02-15T18:43:08.448Z,6.50
2019-02-15T18:45:36.721Z,6.50
2019-02-15T18:48:05.018Z,6.40
2019-02-15T18:50:34.062Z,6.30
2019-02-15T18:53:02.355Z,6.30
2019-02-15T18:55:30.643Z,6.20
2019-02-15T18:57:59.002Z,6.20
2019-02-15T19:00:27.279Z,6.10
2019-02-15T19:02:55.539Z,6.10
2019-02-15T19:05:23.788Z,6.10
2019-02-15T19:07:52.070Z,6.00
2019-02-15T19:10:20.353Z,6.10
2019-02-15T19:12:48.643Z,6.00
2019-02-15T19:15:17.020Z,5.90
2019-02-15T19:17:45.400Z,5.80
2019-02-15T19:20:14.382Z,5.80
2019-02-15T19:22:42.660Z,5.80
2019-02-15T19:25:10.948Z,5.80
2019-02-15T19:27:39.238Z,5.90
2019-02-15T19:30:14.605Z,5.60
2019-02-15T19:32:43.825Z,5.50
2019-02-15T19:35:12.169Z,5.50
2019-02-15T19:37:40.511Z,5.50
2019-02-15T19:40:08.802Z,5.60
2019-02-15T19:42:37.175Z,5.50
2019-02-15T19:45:07.108Z,5.50
2019-02-15T19:47:36.197Z,5.50
2019-02-15T19:50:04.549Z,5.50
2019-02-15T19:52:32.928Z,5.50
2019-02-15T19:55:01.184Z,5.40
2019-02-15T19:57:29.435Z,5.40
2019-02-15T19:59:58.468Z,5.30
2019-02-15T20:02:26.843Z,5.30
2019-02-15T20:04:55.167Z,5.00
2019-02-15T20:07:24.221Z,5.00
2019-02-15T20:09:52.532Z,5.00
2019-02-15T20:12:21.735Z,5.00
2019-02-15T20:14:51.540Z,5.00
2019-02-15T20:17:19.841Z,5.00
2019-02-15T20:19:51.075Z,4.90
2019-02-15T20:22:17.296Z,4.90
2019-02-15T20:24:46.480Z,5.00
2019-02-15T20:27:14.899Z,4.90
2019-02-15T20:29:49.579Z,5.00
2019-02-15T20:32:12.295Z,5.00
2019-02-15T20:34:45.305Z,5.00
2019-02-15T20:37:09.007Z,5.00
2019-02-15T20:39:37.323Z,4.90
2019-02-15T20:42:05.644Z,4.80
2019-02-15T20:44:33.911Z,4.60
2019-02-15T20:47:02.163Z,4.70
2019-02-15T20:49:30.432Z,4.60
2019-02-15T20:51:58.738Z,4.50
2019-02-15T20:54:27.192Z,4.40
2019-02-15T20:56:55.588Z,4.50
2019-02-15T20:59:23.834Z,4.50
2019-02-15T21:01:52.161Z,4.40
2019-02-15T21:04:21.310Z,4.40
2019-02-15T21:06:49.728Z,4.40
2019-02-15T21:09:18.829Z,4.30
2019-02-15T21:11:48.115Z,4.20
2019-02-15T21:14:16.141Z,4.20
2019-02-15T21:16:44.400Z,4.30
2019-02-15T21:19:13.435Z,4.20
2019-02-15T21:21:41.715Z,4.20
2019-02-15T21:24:10.067Z,4.30
2019-02-15T21:26:38.442Z,4.10
2019-02-15T21:29:06.762Z,4.10
2019-02-15T21:31:35.841Z,4.10
2019-02-15T21:34:04.191Z,4.00
2019-02-15T21:36:32.468Z,3.90
2019-02-15T21:39:00.773Z,3.80
2019-02-15T21:41:29.128Z,3.80
2019-02-15T21:43:57.419Z,3.80
2019-02-15T21:46:25.791Z,3.80
2019-02-15T21:48:54.113Z,3.50
2019-02-15T21:51:22.395Z,3.40
2019-02-15T21:53:50.679Z,3.40
2019-02-15T21:56:18.975Z,3.50
2019-02-15T21:58:47.370Z,3.60
2019-02-15T22:01:15.702Z,3.80
2019-02-15T22:03:43.967Z,3.80
2019-02-15T22:06:12.275Z,3.80
2019-02-15T22:08:40.564Z,3.90
2019-02-15T22:11:08.818Z,3.90
2019-02-15T22:13:37.107Z,3.80
2019-02-15T22:16:05.371Z,3.70
2019-02-15T22:18:33.630Z,3.70
2019-02-15T22:21:01.931Z,3.60
2019-02-15T22:23:30.264Z,3.60
2019-02-15T22:25:59.358Z,3.50
2019-02-15T22:28:28.416Z,3.40
2019-02-15T22:30:56.809Z,3.40
2019-02-15T22:33:25.059Z,3.40
2019-02-15T22:35:53.356Z,3.40
2019-02-15T22:38:21.611Z,3.60
2019-02-15T22:40:49.883Z,3.50
2019-02-15T22:43:18.871Z,3.40
2019-02-15T22:45:47.243Z,3.30
2019-02-15T22:48:15.504Z,3.40
2019-02-15T22:50:43.794Z,3.20
2019-02-15T22:53:12.073Z,3.10
2019-02-15T22:55:40.346Z,3.10
2019-02-15T22:58:08.672Z,3.20
2019-02-15T23:03:36.492Z,3.10
2019-02-15T23:06:04.778Z,3.20
2019-02-15T23:08:33.068Z,3.10
2019-02-15T23:11:01.362Z,3.10
2019-02-15T23:13:29.716Z,3.10
2019-02-15T23:15:57.993Z,3.20
2019-02-15T23:18:26.267Z,3.10
2019-02-15T23:20:54.707Z,3.10
2019-02-15T23:23:23.761Z,3.00
2019-02-15T23:25:52.027Z,3.00
2019-02-15T23:28:20.323Z,2.90
2019-02-15T23:30:49.388Z,2.90
2019-02-15T23:33:17.697Z,2.90
2019-02-15T23:35:46.758Z,2.90
2019-02-15T23:38:15.031Z,2.80
2019-02-15T23:40:43.293Z,2.80
2019-02-15T23:43:11.558Z,2.80
2019-02-15T23:45:39.955Z,2.80
2019-02-15T23:48:08.331Z,2.90
2019-02-15T23:50:36.707Z,2.70
2019-02-15T23:53:05.083Z,2.60
2019-02-15T23:55:33.364Z,2.60
2019-02-15T23:58:01.772Z,2.60
